Time;durP1;ratioP1;P1;durP2;ratioP2;P2;SDS_P1;SDS_P2;PMS_P1;PMS_P2;Temp;Humidity;BMP_temperature;BMP_pressure;BME280_temperature;BME280_humidity;BME280_pressure;Samples;Min_cycle;Max_cycle;Signal;HPM_P1;HPM_P2
2020/12/22 05:19:01;;;;;;;1.33;0.70;;;4.00;99.90;;;;;;5412457;23;20044;-68
2020/12/22 05:21:35;;;;;;;1.25;0.55;;;4.00;99.90;;;;;;4898436;29;20093;-68
2020/12/22 05:24:04;;;;;;;1.33;0.60;;;4.00;99.90;;;;;;4898083;29;20036;-69
2020/12/22 05:26:34;;;;;;;0.70;0.60;;;4.00;99.90;;;;;;4898538;29;20151;-69
2020/12/22 05:29:13;;;;;;;1.17;0.60;;;4.00;99.90;;;;;;4898178;29;20029;-70
2020/12/22 05:31:40;;;;;;;;;;;4.10;99.90;;;;;;4898718;29;20059;-69
2020/12/22 05:34:09;;;;;;;0.85;0.80;;;4.10;99.90;;;;;;4898133;29;20378;-73
2020/12/22 05:36:37;;;;;;;0.80;0.80;;;4.00;99.90;;;;;;4897971;29;20044;-73
2020/12/22 05:39:03;;;;;;;1.00;0.60;;;4.00;99.90;;;;;;4884927;29;20123;-73
2020/12/22 05:41:29;;;;;;;0.60;0.60;;;4.00;99.90;;;;;;4897886;29;20115;-69
2020/12/22 05:43:54;;;;;;;0.70;0.70;;;4.00;99.90;;;;;;4897445;29;20476;-75
2020/12/22 05:46:27;;;;;;;0.60;0.60;;;4.10;99.90;;;;;;4897476;29;20084;-74
2020/12/22 05:48:55;;;;;;;0.93;0.60;;;4.40;99.90;;;;;;4897752;29;20107;-72
2020/12/22 05:51:21;;;;;;;6.32;2.28;;;4.40;99.90;;;;;;4896812;29;20531;-72
2020/12/22 05:53:51;;;;;;;22.30;15.00;;;4.30;99.90;;;;;;4897380;29;20037;-73
2020/12/22 05:56:23;;;;;;;24.65;15.25;;;4.20;99.90;;;;;;4897104;29;20429;-72
2020/12/22 05:58:50;;;;;;;49.08;25.80;;;4.20;99.90;;;;;;4894633;29;20499;-74
2020/12/22 06:01:36;;;;;;;70.57;32.97;;;4.20;99.90;;;;;;4896536;29;20024;-75
2020/12/22 06:04:03;;;;;;;82.03;35.38;;;4.20;99.90;;;;;;4892544;29;20056;-76
2020/12/22 06:06:31;;;;;;;12.65;6.60;;;4.20;99.90;;;;;;4896650;29;20056;-76
2020/12/22 06:08:57;;;;;;;10.70;8.95;;;4.20;99.90;;;;;;4896722;29;20075;-73
2020/12/22 06:11:24;;;;;;;3.22;2.38;;;4.20;99.90;;;;;;4893628;29;20060;-72
2020/12/22 06:13:51;;;;;;;7.25;4.10;;;4.10;99.90;;;;;;4896225;29;20035;-70
2020/12/22 06:16:19;;;;;;;3.80;1.75;;;4.10;99.90;;;;;;4896851;29;20039;-72
2020/12/22 06:18:47;;;;;;;1.05;0.95;;;4.10;99.90;;;;;;4894630;29;20175;-71
2020/12/22 06:21:18;;;;;;;1.00;0.70;;;4.00;99.90;;;;;;4895691;29;20032;-72
2020/12/22 06:23:51;;;;;;;0.82;0.80;;;4.00;99.90;;;;;;4891522;29;20052;-72
2020/12/22 06:26:17;;;;;;;1.00;0.90;;;4.00;99.90;;;;;;4894969;29;20024;-72
2020/12/22 06:28:44;;;;;;;2.78;2.00;;;4.00;99.90;;;;;;4896893;29;20555;-74
2020/12/22 06:31:21;;;;;;;4.40;3.80;;;4.00;99.90;;;;;;4897416;29;20031;-74
2020/12/22 06:33:52;;;;;;;1.67;1.58;;;4.00;99.90;;;;;;4897148;29;20032;-73
2020/12/22 06:36:19;;;;;;;3.28;0.85;;;4.10;99.90;;;;;;4897202;29;20033;-73
2020/12/22 06:38:48;;;;;;;2.55;0.90;;;4.10;99.90;;;;;;4896537;29;20036;-73
2020/12/22 06:41:46;;;;;;;3.40;1.00;;;4.00;99.90;;;;;;4885239;29;20036;-73
2020/12/22 06:44:27;;;;;;;1.88;0.98;;;4.00;99.90;;;;;;4882246;29;20271;-73
2020/12/22 06:47:03;;;;;;;0.90;0.77;;;3.90;99.90;;;;;;4883813;29;20061;-73
2020/12/22 06:49:51;;;;;;;1.00;0.90;;;3.90;99.90;;;;;;4896528;29;20512;-73
2020/12/22 06:52:31;;;;;;;2.42;1.30;;;3.90;99.90;;;;;;4878739;29;20029;-73
2020/12/22 06:54:57;;;;;;;3.25;2.40;;;3.90;99.90;;;;;;4890733;29;20436;-75
2020/12/22 06:57:49;;;;;;;4.47;2.88;;;3.90;99.90;;;;;;4896586;29;20021;-79
2020/12/22 07:00:26;;;;;;;1.77;0.75;;;4.00;99.90;;;;;;4896622;29;20063;-79
2020/12/22 07:03:08;;;;;;;0.85;0.77;;;3.90;99.90;;;;;;4893905;29;20111;-79
2020/12/22 07:05:37;;;;;;;1.73;0.80;;;3.90;99.90;;;;;;4896232;29;20628;-79
2020/12/22 07:08:04;;;;;;;1.40;0.80;;;3.90;99.90;;;;;;4896256;29;20127;-79
2020/12/22 07:10:30;;;;;;;4.28;1.05;;;3.90;99.90;;;;;;4896230;29;20033;-82
2020/12/22 07:12:57;;;;;;;2.92;0.70;;;4.00;99.90;;;;;;4896573;29;20021;-80
2020/12/22 07:15:31;;;;;;;0.70;0.60;;;4.30;99.90;;;;;;4896205;29;20039;-83
2020/12/22 07:18:28;;;;;;;0.77;0.60;;;4.40;99.90;;;;;;4886587;29;20160;-76
2020/12/22 07:20:56;;;;;;;0.63;0.63;;;4.30;99.90;;;;;;4889643;29;20513;-72
2020/12/22 07:23:21;;;;;;;1.63;0.85;;;4.20;99.90;;;;;;4891208;29;20065;-71
2020/12/22 07:25:47;;;;;;;0.95;0.80;;;4.20;99.90;;;;;;4891227;29;20108;-74
2020/12/22 07:28:13;;;;;;;1.00;0.90;;;4.20;99.90;;;;;;4896000;29;20603;-77
2020/12/22 07:30:39;;;;;;;3.83;1.30;;;4.20;99.90;;;;;;4897208;29;20024;-73
2020/12/22 07:33:05;;;;;;;6.25;1.23;;;4.10;99.90;;;;;;4896855;29;20178;-73
2020/12/22 07:35:32;;;;;;;9.38;1.20;;;4.10;99.90;;;;;;4899811;29;20107;-73
2020/12/22 07:38:09;;;;;;;10.50;3.75;;;4.00;99.90;;;;;;4899889;29;20028;-73
2020/12/22 07:40:38;;;;;;;140.40;73.20;;;3.90;99.90;;;;;;4896280;29;20396;-73
2020/12/22 07:43:06;;;;;;;30.37;15.00;;;3.90;99.90;;;;;;4900086;29;20480;-72
2020/12/22 07:45:32;;;;;;;13.18;7.72;;;3.90;99.90;;;;;;4899859;29;20354;-73
2020/12/22 07:47:57;;;;;;;24.08;12.85;;;4.40;99.90;;;;;;4899769;29;20104;-72
2020/12/22 07:50:23;;;;;;;62.58;32.67;;;5.00;99.90;;;;;;4899688;29;20043;-72
2020/12/22 07:52:56;;;;;;;20.55;13.05;;;5.40;99.90;;;;;;4899645;29;20029;-71
2020/12/22 07:55:22;;;;;;;80.28;39.45;;;5.60;99.90;;;;;;4899559;29;20017;-73
2020/12/22 07:57:49;;;;;;;63.20;33.17;;;5.70;99.90;;;;;;4899727;29;20035;-72
2020/12/22 08:00:15;;;;;;;52.70;27.00;;;5.60;99.90;;;;;;4899884;29;20036;-72
2020/12/22 08:02:41;;;;;;;56.35;29.15;;;5.60;99.90;;;;;;4899505;29;20668;-76
2020/12/22 08:05:14;;;;;;;61.78;30.50;;;5.30;99.90;;;;;;4899511;29;20025;-76
2020/12/22 08:07:50;;;;;;;64.40;27.73;;;4.90;99.90;;;;;;4900043;29;20539;-76
2020/12/22 08:10:16;;;;;;;45.85;24.58;;;4.60;99.90;;;;;;4900296;29;20032;-78
2020/12/22 08:13:00;;;;;;;11.32;7.70;;;4.30;99.90;;;;;;4900184;29;20029;-77
2020/12/22 08:15:26;;;;;;;3.90;2.72;;;4.10;99.90;;;;;;4899942;29;20488;-74
2020/12/22 08:17:55;;;;;;;10.25;9.25;;;3.90;99.90;;;;;;4899827;29;20039;-72
2020/12/22 08:20:23;;;;;;;3.47;2.22;;;3.70;99.90;;;;;;4900204;29;20047;-74
2020/12/22 08:22:49;;;;;;;1.65;1.55;;;3.80;99.90;;;;;;4899982;29;20081;-73
2020/12/22 08:25:15;;;;;;;1.58;1.48;;;3.90;99.90;;;;;;4900002;29;20033;-70
2020/12/22 08:27:41;;;;;;;0.65;0.65;;;4.20;99.90;;;;;;4899687;29;20024;-71
2020/12/22 08:30:20;;;;;;;0.98;0.80;;;4.20;99.90;;;;;;4899118;29;20027;-71
2020/12/22 08:32:46;;;;;;;0.70;0.70;;;4.00;99.90;;;;;;4898941;29;20032;-72
2020/12/22 08:35:14;;;;;;;0.90;0.60;;;3.90;99.90;;;;;;4898947;29;20111;-71
2020/12/22 08:37:40;;;;;;;0.63;0.63;;;3.90;99.90;;;;;;4899252;29;20021;-72
2020/12/22 08:40:06;;;;;;;1.15;0.70;;;3.80;99.90;;;;;;4898276;29;20028;-71
2020/12/22 08:42:31;;;;;;;0.85;0.60;;;3.60;99.90;;;;;;4891922;29;20033;-74
2020/12/22 08:44:57;;;;;;;1.00;0.82;;;3.50;99.90;;;;;;4886597;29;20497;-73
2020/12/22 08:47:23;;;;;;;1.17;0.63;;;3.50;99.90;;;;;;4898872;29;20025;-74
2020/12/22 08:49:49;;;;;;;0.75;0.75;;;3.50;99.90;;;;;;4899232;29;20052;-73
2020/12/22 08:52:20;;;;;;;0.82;0.52;;;3.50;99.90;;;;;;4899075;29;20029;-73
2020/12/22 08:54:47;;;;;;;1.02;0.73;;;3.50;99.90;;;;;;4882284;29;20033;-73
2020/12/22 08:57:14;;;;;;;0.70;0.70;;;3.50;99.90;;;;;;4888521;29;20116;-74
2020/12/22 08:59:40;;;;;;;0.65;0.50;;;3.60;99.90;;;;;;4898722;29;20088;-73
2020/12/22 09:02:18;;;;;;;0.68;0.65;;;3.60;99.90;;;;;;4899079;29;20385;-72
2020/12/22 09:04:44;;;;;;;0.65;0.65;;;3.60;99.90;;;;;;4898528;29;20436;-72
2020/12/22 09:07:11;;;;;;;1.38;0.70;;;3.60;99.90;;;;;;4899233;29;20021;-70
2020/12/22 09:09:37;;;;;;;1.85;0.80;;;3.60;99.90;;;;;;4898428;29;20040;-72
2020/12/22 09:12:07;;;;;;;0.70;0.60;;;3.60;99.90;;;;;;4895341;29;20525;-72
2020/12/22 09:14:44;;;;;;;1.70;1.08;;;3.60;99.90;;;;;;4879457;29;20040;-71
2020/12/22 09:17:11;;;;;;;0.88;0.60;;;3.60;99.90;;;;;;4880147;29;20519;-72
2020/12/22 09:19:50;;;;;;;2.22;0.80;;;3.60;99.90;;;;;;4879579;29;20139;-72
2020/12/22 09:22:20;;;;;;;2.00;0.90;;;3.60;99.90;;;;;;4889276;29;20388;-72
2020/12/22 09:24:56;;;;;;;;;;;3.60;99.90;;;;;;4893310;29;20511;-72
2020/12/22 09:27:51;;;;;;;1.17;0.90;;;3.60;99.90;;;;;;4898480;29;19918;-71
2020/12/22 09:30:17;;;;;;;1.17;0.90;;;3.60;99.90;;;;;;4888381;29;20033;-71
2020/12/22 09:32:45;;;;;;;1.02;0.90;;;3.60;99.90;;;;;;4878950;29;20029;-68
2020/12/22 09:35:11;;;;;;;1.50;0.90;;;3.60;99.90;;;;;;4879753;29;20486;-69
2020/12/22 09:37:37;;;;;;;1.77;1.35;;;3.60;99.90;;;;;;4879660;29;20037;-69
2020/12/22 09:40:03;;;;;;;4.88;1.60;;;3.70;99.90;;;;;;4879661;29;20072;-70
2020/12/22 09:42:29;;;;;;;2.10;1.08;;;3.80;99.90;;;;;;4880033;29;20365;-70
2020/12/22 09:44:54;;;;;;;3.25;1.10;;;3.70;99.90;;;;;;4879574;29;20032;-70
2020/12/22 09:47:20;;;;;;;2.15;1.15;;;3.70;99.90;;;;;;4879787;29;20029;-71
2020/12/22 09:49:46;;;;;;;4.20;1.20;;;3.60;99.90;;;;;;4879282;29;20473;-70
2020/12/22 09:52:12;;;;;;;1.85;1.10;;;3.60;99.90;;;;;;4878618;29;20025;-71
2020/12/22 09:54:38;;;;;;;8.07;1.77;;;3.60;99.90;;;;;;4879256;29;20120;-74
2020/12/22 09:57:04;;;;;;;4.88;1.38;;;3.50;99.90;;;;;;4879719;29;20032;-74
2020/12/22 09:59:30;;;;;;;5.88;1.10;;;3.30;99.90;;;;;;4879044;29;20040;-74
2020/12/22 10:01:58;;;;;;;6.35;1.40;;;3.20;99.90;;;;;;4887910;29;20052;-74
2020/12/22 10:04:24;;;;;;;1.50;1.10;;;3.20;99.90;;;;;;4896435;29;20032;-74
2020/12/22 10:06:50;;;;;;;2.92;1.23;;;3.10;99.90;;;;;;4897556;29;20055;-73
2020/12/22 10:09:16;;;;;;;6.18;1.30;;;3.20;99.90;;;;;;4897906;29;20032;-73
2020/12/22 10:11:43;;;;;;;3.38;1.42;;;3.20;99.90;;;;;;4897706;29;20029;-73
2020/12/22 10:14:08;;;;;;;6.85;1.60;;;3.20;99.90;;;;;;4898083;29;20032;-75
2020/12/22 10:16:34;;;;;;;2.78;1.27;;;3.20;99.90;;;;;;4897544;29;20417;-74
2020/12/22 10:19:00;;;;;;;5.30;1.35;;;3.20;99.90;;;;;;4896327;29;20140;-74
2020/12/22 10:21:26;;;;;;;5.15;1.38;;;3.10;99.90;;;;;;4897115;29;20112;-74
2020/12/22 10:23:59;;;;;;;4.60;1.73;;;3.00;99.90;;;;;;4894809;29;20115;-75
2020/12/22 10:26:26;;;;;;;5.25;1.80;;;2.90;99.90;;;;;;4897162;29;20037;-72
2020/12/22 10:28:52;;;;;;;4.95;1.92;;;2.90;99.90;;;;;;4897378;29;20055;-77
2020/12/22 10:31:19;;;;;;;4.45;1.30;;;3.00;99.90;;;;;;4897003;29;20051;-70
2020/12/22 10:33:46;;;;;;;1.77;1.20;;;2.90;99.90;;;;;;4896979;29;20027;-74
2020/12/22 10:36:19;;;;;;;3.33;1.50;;;2.90;99.90;;;;;;4896594;29;20043;-72
2020/12/22 10:38:45;;;;;;;1.60;1.42;;;2.80;99.90;;;;;;4895528;29;20033;-72
2020/12/22 10:41:11;;;;;;;3.70;1.10;;;2.80;99.90;;;;;;4896926;29;20540;-72
2020/12/22 10:43:37;;;;;;;3.00;1.00;;;2.80;99.90;;;;;;4896530;29;20413;-72
2020/12/22 10:46:04;;;;;;;2.97;1.40;;;2.80;99.90;;;;;;4896901;29;20024;-71
2020/12/22 10:48:30;;;;;;;3.20;1.20;;;2.70;99.90;;;;;;4896897;29;20116;-71
2020/12/22 10:50:56;;;;;;;1.73;1.23;;;2.70;99.90;;;;;;4896488;29;20515;-72
2020/12/22 10:53:22;;;;;;;1.02;0.90;;;2.70;99.90;;;;;;4896917;29;20030;-71
2020/12/22 10:55:48;;;;;;;3.20;1.08;;;2.70;99.90;;;;;;4896641;29;20045;-71
2020/12/22 10:58:14;;;;;;;1.67;1.02;;;2.60;99.90;;;;;;4896881;29;20025;-71
2020/12/22 11:00:40;;;;;;;2.55;1.30;;;2.60;99.90;;;;;;4894372;29;20033;-72
2020/12/22 11:03:08;;;;;;;2.03;1.20;;;2.60;99.90;;;;;;4896761;29;20029;-72
2020/12/22 11:08:20;;;;;;;1.25;1.10;;;2.70;99.90;;;;;;4896980;29;20517;-72
2020/12/22 11:10:46;;;;;;;1.85;1.10;;;2.80;99.90;;;;;;4896503;29;20048;-71
2020/12/22 11:13:12;;;;;;;2.22;1.25;;;2.80;99.90;;;;;;4896664;29;20072;-72
2020/12/22 11:15:37;;;;;;;1.60;1.40;;;2.70;99.90;;;;;;4896307;29;20020;-71
2020/12/22 11:18:03;;;;;;;2.17;1.50;;;2.60;99.90;;;;;;4896136;29;20483;-72
2020/12/22 11:20:29;;;;;;;2.50;1.40;;;2.60;99.90;;;;;;4896797;29;20039;-71
2020/12/22 11:22:55;;;;;;;3.38;1.02;;;2.60;99.90;;;;;;4896683;29;20043;-72
2020/12/22 11:25:21;;;;;;;2.67;1.42;;;2.60;99.90;;;;;;4896207;29;20029;-72
2020/12/22 11:27:46;;;;;;;1.95;1.33;;;2.60;99.90;;;;;;4896323;29;20024;-72
2020/12/22 11:30:13;;;;;;;2.22;1.27;;;2.60;99.90;;;;;;4896290;29;20116;-73
2020/12/22 11:32:40;;;;;;;1.55;1.45;;;2.60;99.90;;;;;;4896195;29;20032;-72
2020/12/22 11:35:07;;;;;;;3.63;1.42;;;2.60;99.90;;;;;;4896169;29;20070;-72
2020/12/22 11:37:33;;;;;;;1.77;1.35;;;2.50;99.90;;;;;;4896747;29;20122;-72
2020/12/22 11:39:59;;;;;;;2.10;1.40;;;2.40;99.90;;;;;;4896018;29;20047;-73
2020/12/22 11:42:25;;;;;;;1.92;1.20;;;2.30;99.90;;;;;;4896969;29;20032;-73
2020/12/22 11:44:51;;;;;;;2.13;1.40;;;2.30;99.90;;;;;;4896091;29;20400;-74
2020/12/22 11:47:17;;;;;;;1.85;1.35;;;2.30;99.90;;;;;;4896093;29;20056;-73
2020/12/22 11:49:42;;;;;;;2.60;1.20;;;2.30;99.90;;;;;;4897013;29;20036;-73
2020/12/22 11:52:09;;;;;;;4.07;1.52;;;2.30;99.90;;;;;;4896506;29;20528;-73
2020/12/22 11:54:36;;;;;;;1.40;1.30;;;2.30;99.90;;;;;;4896347;29;20144;-74
2020/12/22 11:57:03;;;;;;;2.20;1.33;;;2.30;99.90;;;;;;4895948;29;20101;-73
2020/12/22 11:59:28;;;;;;;2.05;1.35;;;2.20;99.90;;;;;;4895811;29;20496;-72
2020/12/22 12:01:54;;;;;;;2.00;1.23;;;2.20;99.90;;;;;;4896006;29;20081;-73
2020/12/22 12:04:20;;;;;;;2.45;1.40;;;2.10;99.90;;;;;;4896050;29;20028;-73
2020/12/22 12:06:49;;;;;;;2.92;1.40;;;2.00;99.90;;;;;;4895466;29;20476;-73
2020/12/22 12:09:15;;;;;;;1.70;1.20;;;2.00;99.90;;;;;;4896053;29;20029;-73
2020/12/22 12:11:46;;;;;;;2.03;1.77;;;1.90;99.90;;;;;;4895667;29;20096;-73
2020/12/22 12:14:11;;;;;;;;;;;2.00;99.90;;;;;;4896460;29;20037;-72
2020/12/22 12:16:37;;;;;;;4.95;2.67;;;2.00;99.90;;;;;;4898476;29;19907;-75
2020/12/22 12:19:03;;;;;;;4.32;1.42;;;2.00;99.90;;;;;;4899678;29;20060;-77
2020/12/22 12:21:28;;;;;;;3.58;1.80;;;2.00;99.90;;;;;;4899641;29;20025;-77
2020/12/22 12:23:54;;;;;;;2.97;1.52;;;2.00;99.90;;;;;;4899743;29;20031;-72
2020/12/22 12:26:23;;;;;;;6.57;1.58;;;2.00;99.90;;;;;;4899711;29;20032;-79
2020/12/22 12:28:50;;;;;;;4.22;1.52;;;2.10;99.90;;;;;;4899343;29;20068;-71
2020/12/22 12:31:17;;;;;;;2.10;1.50;;;2.00;99.90;;;;;;4900055;29;20063;-72
2020/12/22 12:33:43;;;;;;;2.92;1.90;;;2.20;99.90;;;;;;4899652;29;20025;-72
2020/12/22 12:36:13;;;;;;;2.65;1.90;;;2.80;99.90;;;;;;4899863;29;20104;-71
2020/12/22 12:38:39;;;;;;;2.60;2.10;;;2.80;99.90;;;;;;4899431;29;20103;-72
2020/12/22 12:41:05;;;;;;;4.45;2.17;;;2.70;99.90;;;;;;4899471;29;20111;-72
2020/12/22 12:43:30;;;;;;;7.13;2.67;;;2.40;99.90;;;;;;4889156;29;20116;-72
2020/12/22 12:45:56;;;;;;;11.80;2.53;;;2.20;99.90;;;;;;4892554;29;20063;-71
2020/12/22 12:48:22;;;;;;;3.03;2.17;;;2.00;99.90;;;;;;4895292;29;20031;-71
2020/12/22 12:50:48;;;;;;;6.97;2.60;;;1.90;99.90;;;;;;4899082;29;20067;-71
2020/12/22 12:53:13;;;;;;;4.57;3.05;;;1.80;99.90;;;;;;4899299;29;20380;-71
2020/12/22 12:55:39;;;;;;;8.25;2.35;;;1.80;99.90;;;;;;4898754;29;20131;-72
2020/12/22 12:58:05;;;;;;;4.57;2.88;;;1.80;99.90;;;;;;4899300;29;20092;-71
2020/12/22 13:00:30;;;;;;;4.38;2.75;;;1.80;99.90;;;;;;4898982;29;20396;-71
2020/12/22 13:02:56;;;;;;;5.28;2.67;;;1.80;99.90;;;;;;4899005;29;20032;-72
2020/12/22 13:05:22;;;;;;;5.35;3.08;;;1.80;99.90;;;;;;4898712;29;20062;-70
2020/12/22 13:07:48;;;;;;;5.35;2.70;;;2.40;99.90;;;;;;4898864;29;20025;-71
2020/12/22 13:10:13;;;;;;;4.50;2.80;;;2.40;99.90;;;;;;4897811;29;20020;-78
2020/12/22 13:12:39;;;;;;;8.70;4.00;;;2.20;99.90;;;;;;4899540;29;20091;-77
2020/12/22 13:15:05;;;;;;;6.82;3.38;;;2.00;99.90;;;;;;4899252;29;20056;-77
2020/12/22 13:17:31;;;;;;;5.32;2.95;;;1.90;99.90;;;;;;4898703;29;20593;-78
2020/12/22 13:19:57;;;;;;;4.43;2.92;;;1.90;99.90;;;;;;4898118;29;20504;-72
2020/12/22 13:22:22;;;;;;;4.72;3.53;;;1.90;99.90;;;;;;4898569;29;20032;-71
2020/12/22 13:24:48;;;;;;;3.65;2.53;;;1.90;99.90;;;;;;4898296;29;20037;-74
2020/12/22 13:27:14;;;;;;;4.38;2.35;;;1.90;99.90;;;;;;4898218;29;20389;-75
2020/12/22 13:29:40;;;;;;;8.52;2.42;;;1.90;99.90;;;;;;4898851;29;20111;-74
2020/12/22 13:32:05;;;;;;;3.15;2.55;;;1.90;99.90;;;;;;4898478;29;20374;-74
2020/12/22 13:34:31;;;;;;;3.90;2.45;;;1.90;99.90;;;;;;4898830;29;20040;-73
2020/12/22 13:36:57;;;;;;;4.47;2.50;;;1.90;99.90;;;;;;4898400;29;20132;-75
2020/12/22 13:39:23;;;;;;;3.90;2.40;;;1.90;99.90;;;;;;4898444;29;20374;-74
2020/12/22 13:41:50;;;;;;;4.28;2.65;;;1.90;99.90;;;;;;4898295;29;20066;-74
2020/12/22 13:44:16;;;;;;;4.82;2.83;;;1.90;99.90;;;;;;4898647;29;20032;-74
2020/12/22 13:46:42;;;;;;;3.47;2.60;;;1.90;99.90;;;;;;4898507;29;20032;-74
2020/12/22 13:49:08;;;;;;;5.28;2.63;;;1.90;99.90;;;;;;4898372;29;20401;-74
2020/12/22 13:51:34;;;;;;;2.47;2.20;;;2.00;99.90;;;;;;4898375;29;20371;-74
2020/12/22 13:54:00;;;;;;;4.65;3.17;;;2.00;99.90;;;;;;4897834;29;20024;-71
2020/12/22 13:56:26;;;;;;;3.22;2.35;;;2.00;99.90;;;;;;4898124;29;20089;-72
2020/12/22 13:58:52;;;;;;;2.78;2.35;;;2.10;99.90;;;;;;4897878;29;20047;-72
2020/12/22 14:01:24;;;;;;;3.35;2.25;;;2.10;99.90;;;;;;4897972;29;20041;-72
2020/12/22 14:03:49;;;;;;;4.68;2.55;;;2.10;99.90;;;;;;4897952;29;20057;-72
2020/12/22 14:06:15;;;;;;;3.70;2.38;;;2.10;99.90;;;;;;4898192;29;20075;-71
2020/12/22 14:08:41;;;;;;;2.53;2.30;;;2.20;99.90;;;;;;4896659;29;20021;-71
2020/12/22 14:11:06;;;;;;;6.13;2.95;;;2.20;99.90;;;;;;4897759;29;20036;-72
2020/12/22 14:13:32;;;;;;;4.43;2.55;;;2.20;99.90;;;;;;4898060;29;20032;-72
2020/12/22 14:15:58;;;;;;;4.70;2.55;;;2.30;99.90;;;;;;4897906;29;20068;-71
2020/12/22 14:18:23;;;;;;;4.50;2.65;;;2.30;99.90;;;;;;4897403;29;20119;-71
2020/12/22 14:20:49;;;;;;;2.80;2.17;;;2.30;99.90;;;;;;4897546;29;20393;-72
2020/12/22 14:23:18;;;;;;;3.35;2.47;;;2.30;99.90;;;;;;4897653;29;20060;-72
2020/12/22 14:25:43;;;;;;;2.83;2.40;;;2.40;99.90;;;;;;4897459;29;20033;-72
2020/12/22 14:28:09;;;;;;;3.60;2.15;;;2.30;99.90;;;;;;4897521;29;20036;-72
2020/12/22 14:30:35;;;;;;;2.83;2.20;;;2.40;99.90;;;;;;4897788;29;20033;-73
2020/12/22 14:33:01;;;;;;;3.78;2.13;;;2.40;99.90;;;;;;4897291;29;20095;-72
2020/12/22 14:35:26;;;;;;;3.80;2.33;;;2.40;99.90;;;;;;4886922;29;20077;-71
2020/12/22 14:37:52;;;;;;;3.20;2.33;;;2.40;99.90;;;;;;4887808;29;20056;-71
2020/12/22 14:40:18;;;;;;;4.68;2.20;;;2.50;99.90;;;;;;4893438;29;20101;-71
2020/12/22 14:42:43;;;;;;;4.80;2.60;;;2.40;99.90;;;;;;4896792;29;20051;-72
2020/12/22 14:45:09;;;;;;;3.63;2.65;;;2.40;99.90;;;;;;4896970;29;20028;-72
2020/12/22 14:47:35;;;;;;;3.15;2.40;;;2.40;99.90;;;;;;4897093;29;20071;-72
2020/12/22 14:50:00;;;;;;;3.95;2.45;;;2.40;99.90;;;;;;4897000;29;20043;-72
2020/12/22 14:52:26;;;;;;;3.33;2.28;;;2.40;99.90;;;;;;4896918;29;20033;-73
2020/12/22 14:54:52;;;;;;;3.45;2.42;;;2.40;99.90;;;;;;4892931;29;20026;-72
2020/12/22 14:57:18;;;;;;;3.08;2.42;;;2.40;99.90;;;;;;4896512;29;20040;-72
2020/12/22 14:59:43;;;;;;;4.25;2.88;;;2.40;99.90;;;;;;4896700;29;20064;-73
2020/12/22 15:02:09;;;;;;;3.63;2.88;;;2.40;99.90;;;;;;4894039;29;20024;-72
2020/12/22 15:04:35;;;;;;;4.07;2.50;;;2.30;99.90;;;;;;4893201;29;20100;-73
2020/12/22 15:07:03;;;;;;;6.03;2.92;;;2.20;99.90;;;;;;4895085;29;20152;-73
2020/12/22 15:09:29;;;;;;;5.80;2.50;;;2.20;99.90;;;;;;4896697;29;20032;-73
2020/12/22 15:11:55;;;;;;;4.28;2.80;;;2.10;99.90;;;;;;4896371;29;20104;-73
2020/12/22 15:14:20;;;;;;;4.90;3.00;;;2.10;99.90;;;;;;4881988;29;20104;-73
2020/12/22 15:16:47;;;;;;;12.23;3.53;;;2.10;99.90;;;;;;4891840;29;20429;-73
2020/12/22 15:19:13;;;;;;;4.85;2.85;;;2.10;99.90;;;;;;4896533;29;20060;-72
2020/12/22 15:21:39;;;;;;;6.13;3.10;;;2.20;99.90;;;;;;4896827;29;20108;-73
2020/12/22 15:24:05;;;;;;;6.40;3.25;;;2.20;99.90;;;;;;4896802;29;20032;-72
2020/12/22 15:26:31;;;;;;;7.40;3.30;;;2.20;99.90;;;;;;4896953;29;20029;-77
2020/12/22 15:28:57;;;;;;;6.20;2.78;;;2.20;99.90;;;;;;4896418;29;20524;-79
2020/12/22 15:31:23;;;;;;;7.03;2.85;;;2.60;99.90;;;;;;4896370;29;20131;-79
2020/12/22 15:33:50;;;;;;;6.15;2.83;;;2.70;99.90;;;;;;4896852;29;20048;-79
2020/12/22 15:36:16;;;;;;;5.13;2.80;;;2.70;99.90;;;;;;4896301;29;20070;-79
2020/12/22 15:38:43;;;;;;;7.03;2.80;;;2.60;99.90;;;;;;4896555;29;20036;-75
2020/12/22 15:41:09;;;;;;;3.33;2.55;;;2.50;99.90;;;;;;4896606;29;20078;-76
2020/12/22 15:43:36;;;;;;;4.15;2.17;;;2.50;99.90;;;;;;4896154;29;20029;-74
2020/12/22 15:46:02;;;;;;;5.53;2.70;;;2.80;99.90;;;;;;4896657;29;20028;-74
2020/12/22 15:48:28;;;;;;;4.82;3.28;;;3.20;99.90;;;;;;4896941;29;20104;-73
2020/12/22 15:50:54;;;;;;;3.85;2.80;;;2.90;99.90;;;;;;4897598;29;20115;-74
2020/12/22 15:53:20;;;;;;;5.00;2.95;;;2.70;99.90;;;;;;4900303;29;20129;-73
2020/12/22 15:55:46;;;;;;;5.20;2.67;;;2.40;99.90;;;;;;4900396;29;20096;-74
2020/12/22 15:58:11;;;;;;;3.90;2.95;;;2.30;99.90;;;;;;4900458;29;20515;-73
2020/12/22 16:00:37;;;;;;;4.22;2.22;;;2.30;99.90;;;;;;4900291;29;20111;-73
2020/12/22 16:03:03;;;;;;;7.72;2.53;;;2.30;99.90;;;;;;4900067;29;20029;-73
2020/12/22 16:05:29;;;;;;;4.13;2.30;;;2.20;99.90;;;;;;4900143;29;20039;-74
2020/12/22 16:07:55;;;;;;;4.03;2.40;;;2.20;99.90;;;;;;4900158;29;20033;-74
2020/12/22 16:10:23;;;;;;;3.65;2.28;;;2.20;99.90;;;;;;4900029;29;20033;-74
2020/12/22 16:12:49;;;;;;;3.50;2.40;;;2.30;99.90;;;;;;4899814;29;20392;-74
2020/12/22 16:15:15;;;;;;;4.47;2.55;;;2.30;99.90;;;;;;4899970;29;20116;-73
2020/12/22 16:17:41;;;;;;;4.28;2.38;;;2.30;99.90;;;;;;4899834;29;20056;-73
2020/12/22 16:20:06;;;;;;;5.95;2.78;;;2.30;99.90;;;;;;4899529;29;20124;-74
2020/12/22 16:22:32;;;;;;;4.20;2.72;;;2.30;99.90;;;;;;4899815;29;20362;-74
2020/12/22 16:24:58;;;;;;;3.50;2.45;;;2.20;99.90;;;;;;4899996;29;20053;-73
2020/12/22 16:27:24;;;;;;;2.80;2.03;;;2.30;99.90;;;;;;4900210;29;20052;-74
2020/12/22 16:29:50;;;;;;;3.30;2.10;;;2.30;99.90;;;;;;4899504;29;20472;-74
2020/12/22 16:32:15;;;;;;;4.53;2.35;;;2.30;99.90;;;;;;4899567;29;20033;-73
2020/12/22 16:34:41;;;;;;;4.72;2.42;;;2.20;99.90;;;;;;4899934;29;20029;-73
2020/12/22 16:37:07;;;;;;;3.03;2.08;;;2.30;99.90;;;;;;4899545;29;20369;-74
2020/12/22 16:39:33;;;;;;;7.70;2.35;;;2.30;99.90;;;;;;4899545;29;20484;-73
2020/12/22 16:41:58;;;;;;;4.85;2.47;;;2.40;99.90;;;;;;4899281;29;20033;-74
2020/12/22 16:44:24;;;;;;;4.03;2.40;;;2.40;99.90;;;;;;4899765;29;20036;-73
2020/12/22 16:46:56;;;;;;;3.53;2.42;;;2.40;99.90;;;;;;4899431;29;20021;-74
2020/12/22 16:49:21;;;;;;;3.67;2.08;;;2.40;99.90;;;;;;4899382;29;20123;-73
2020/12/22 16:51:52;;;;;;;5.57;1.98;;;2.40;99.90;;;;;;4898734;29;20227;-74
2020/12/22 16:54:18;;;;;;;3.42;1.80;;;2.50;99.90;;;;;;4899466;29;20037;-74
2020/12/22 16:56:44;;;;;;;5.68;2.03;;;3.20;99.90;;;;;;4899179;29;20045;-73
2020/12/22 16:59:10;;;;;;;4.13;1.90;;;3.30;99.90;;;;;;4898907;29;20036;-74
2020/12/22 17:01:35;;;;;;;5.28;2.10;;;3.10;99.90;;;;;;4898730;29;20127;-74
2020/12/22 17:04:01;;;;;;;5.85;2.22;;;2.90;99.90;;;;;;4899091;29;20404;-74
2020/12/22 17:06:37;;;;;;;3.70;2.00;;;2.80;99.90;;;;;;4899116;29;20025;-74
2020/12/22 17:09:04;;;;;;;4.32;2.00;;;2.70;99.90;;;;;;4899218;29;20028;-74
2020/12/22 17:11:30;;;;;;;5.60;2.50;;;2.60;99.90;;;;;;4898899;29;20025;-73
2020/12/22 17:13:56;;;;;;;5.32;2.30;;;2.50;99.90;;;;;;4898865;29;20481;-77
2020/12/22 17:16:22;;;;;;;5.85;2.08;;;3.90;99.90;;;;;;4899211;29;20120;-75
2020/12/22 17:18:47;;;;;;;5.95;2.25;;;3.80;99.90;;;;;;4899520;29;20564;-75
2020/12/22 17:21:14;;;;;;;5.68;2.38;;;3.50;99.90;;;;;;4898438;29;20036;-75
2020/12/22 17:23:40;;;;;;;3.28;2.33;;;3.20;99.90;;;;;;4898685;29;20039;-75
2020/12/22 17:26:05;;;;;;;4.43;2.40;;;3.10;99.90;;;;;;4898595;29;20123;-75
2020/12/22 17:28:31;;;;;;;6.57;3.10;;;3.00;99.90;;;;;;4898699;29;20029;-77
2020/12/22 17:30:59;;;;;;;5.60;2.42;;;2.90;99.90;;;;;;4898011;29;20029;-77
2020/12/22 17:33:25;;;;;;;3.83;2.25;;;2.90;99.90;;;;;;4898645;29;20071;-76
2020/12/22 17:35:51;;;;;;;7.43;2.53;;;2.80;99.90;;;;;;4898513;29;20036;-76
2020/12/22 17:38:17;;;;;;;5.53;2.40;;;2.80;99.90;;;;;;4901211;29;20028;-75
2020/12/22 17:40:43;;;;;;;5.47;2.58;;;2.80;99.90;;;;;;4898729;29;20122;-75
2020/12/22 17:43:09;;;;;;;6.25;2.15;;;2.80;99.90;;;;;;4898724;29;20377;-75
2020/12/22 17:45:34;;;;;;;6.43;2.58;;;2.70;99.90;;;;;;4898515;29;20476;-75
2020/12/22 17:48:00;;;;;;;4.28;2.33;;;2.70;99.90;;;;;;4898197;29;20028;-74
2020/12/22 17:50:26;;;;;;;3.60;2.15;;;2.70;99.90;;;;;;4898427;29;20107;-74
2020/12/22 17:52:52;;;;;;;6.45;2.25;;;2.80;99.90;;;;;;4898043;29;20127;-74
2020/12/22 17:55:17;;;;;;;5.60;2.47;;;2.80;99.90;;;;;;4897932;29;20096;-76
2020/12/22 17:57:43;;;;;;;8.85;2.72;;;2.80;99.90;;;;;;4898080;29;20024;-75
2020/12/22 18:00:10;;;;;;;5.30;2.55;;;2.80;99.90;;;;;;4898046;29;20041;-75
2020/12/22 18:02:36;;;;;;;6.13;2.40;;;2.80;99.90;;;;;;4898079;29;20084;-75
2020/12/22 18:05:02;;;;;;;5.75;3.03;;;2.70;99.90;;;;;;4898026;29;20032;-79
2020/12/22 18:07:31;;;;;;;5.78;3.20;;;2.80;99.90;;;;;;4897955;29;20079;-77
2020/12/22 18:09:59;;;;;;;5.68;2.53;;;3.20;99.90;;;;;;4881533;29;20031;-79
2020/12/22 18:12:25;;;;;;;6.07;2.53;;;3.40;99.90;;;;;;4897758;29;20107;-77
2020/12/22 18:14:51;;;;;;;9.25;3.50;;;3.60;99.90;;;;;;4897353;29;20487;-77
2020/12/22 18:17:17;;;;;;;5.35;2.97;;;3.60;99.90;;;;;;4897845;29;20033;-77